Terminal Aerodrome Forecast
Issued by NWS

Home | Current Version | Previous Version | Text Only | Print | Product List | Glossary Off
Versions: 1 2 3 4 5 6 7 8 9 10 11 12 13 14

000
FTUS43 KABR 160500
TAFMBG
TAF
KMBG 160528Z 1606/1706 13010KT P6SM BKN080
     FM161600 36011G17KT P6SM SCT050=

USA.gov is the U.S. government's official web portal to all federal, state and local government web resources and services.